Time;durP1;ratioP1;P1;durP2;ratioP2;P2;SDS_P1;SDS_P2;PMS_P1;PMS_P2;Temp;Humidity;BMP_temperature;BMP_pressure;BME280_temperature;BME280_humidity;BME280_pressure;Samples;Min_cycle;Max_cycle;Signal;HPM_P1;HPM_P2
2023/07/09 00:01:55;;;;;;;97.10;2.50;;;26.60;28.20;;;;;;4973386;28;20433;-74
2023/07/09 00:04:21;;;;;;;97.50;2.90;;;26.70;28.60;;;;;;4973344;28;20852;-72
2023/07/09 00:06:47;;;;;;;97.20;2.90;;;26.70;28.10;;;;;;4973164;28;20536;-72
2023/07/09 00:09:18;;;;;;;97.17;2.80;;;26.60;28.70;;;;;;4973042;28;20700;-72
2023/07/09 00:11:44;;;;;;;97.37;2.70;;;26.50;29.60;;;;;;4973389;28;20241;-73
2023/07/09 00:14:11;;;;;;;100.17;2.60;;;26.40;29.10;;;;;;4973347;28;20422;-72
2023/07/09 00:16:38;;;;;;;98.23;3.17;;;26.20;29.50;;;;;;4973031;28;20405;-72
2023/07/09 00:19:05;;;;;;;97.77;2.80;;;26.30;31.00;;;;;;4972951;28;20567;-72
2023/07/09 00:21:33;;;;;;;98.40;3.20;;;26.40;29.30;;;;;;4973025;28;20497;-72
2023/07/09 00:24:04;;;;;;;98.07;2.93;;;26.30;29.70;;;;;;4971739;28;20449;-72
2023/07/09 00:26:33;;;;;;;97.47;2.53;;;26.40;29.70;;;;;;4972185;28;20429;-72
2023/07/09 00:28:59;;;;;;;98.50;3.17;;;26.30;29.90;;;;;;4973454;28;20495;-72
2023/07/09 00:31:26;;;;;;;97.63;2.70;;;26.50;28.70;;;;;;4973153;28;20413;-72
2023/07/09 00:33:52;;;;;;;97.90;2.70;;;26.30;29.70;;;;;;4972831;28;20745;-72
2023/07/09 00:36:26;;;;;;;98.23;2.80;;;26.30;29.80;;;;;;4972865;28;20425;-72
2023/07/09 00:38:52;;;;;;;99.43;3.43;;;26.10;30.10;;;;;;4972984;28;20205;-72
2023/07/09 00:41:20;;;;;;;97.70;2.53;;;26.00;30.10;;;;;;4972959;28;20402;-72
2023/07/09 00:43:48;;;;;;;98.17;2.67;;;26.00;30.40;;;;;;4972832;28;20241;-72
2023/07/09 00:46:19;;;;;;;98.27;2.90;;;26.00;30.00;;;;;;4972570;28;20549;-72
2023/07/09 00:48:48;;;;;;;98.33;3.00;;;26.00;30.60;;;;;;4972451;28;21083;-72
2023/07/09 00:51:20;;;;;;;98.10;2.60;;;25.80;30.70;;;;;;4972621;28;20425;-72
2023/07/09 00:53:46;;;;;;;97.97;2.63;;;25.90;30.20;;;;;;4972836;28;20495;-72
2023/07/09 00:56:19;;;;;;;97.97;2.57;;;25.80;30.60;;;;;;4972195;28;20658;-72
2023/07/09 00:58:48;;;;;;;97.67;2.30;;;25.70;31.40;;;;;;4972967;28;20502;-72
2023/07/09 01:01:18;;;;;;;98.37;2.77;;;25.60;32.40;;;;;;4972686;28;20410;-72
2023/07/09 01:03:57;;;;;;;98.77;2.63;;;25.60;31.70;;;;;;4971617;28;20422;-72
2023/07/09 01:06:32;;;;;;;98.57;2.80;;;25.70;32.30;;;;;;4972452;28;20410;-72
2023/07/09 01:09:00;;;;;;;99.20;2.97;;;25.60;31.90;;;;;;4972464;28;20431;-72
2023/07/09 01:11:26;;;;;;;98.37;2.90;;;25.70;31.10;;;;;;4972597;28;20830;-72
2023/07/09 01:13:55;;;;;;;99.27;2.80;;;25.80;30.80;;;;;;4972453;28;20437;-72
2023/07/09 01:16:23;;;;;;;99.10;3.13;;;25.80;31.20;;;;;;4972117;28;20441;-73
2023/07/09 01:18:52;;;;;;;98.60;2.60;;;25.60;31.70;;;;;;4972112;28;20823;-72
2023/07/09 01:21:19;;;;;;;98.90;3.00;;;25.70;31.20;;;;;;4972463;28;20850;-72
2023/07/09 01:23:47;;;;;;;99.50;2.67;;;25.60;31.20;;;;;;4972456;28;20414;-72
2023/07/09 01:26:15;;;;;;;98.37;2.60;;;25.60;31.80;;;;;;4972391;28;20421;-72
2023/07/09 01:28:44;;;;;;;98.80;2.87;;;25.50;31.90;;;;;;4972241;28;20497;-73
2023/07/09 01:31:11;;;;;;;99.67;3.00;;;25.60;32.40;;;;;;4972304;28;20417;-72
2023/07/09 01:33:39;;;;;;;100.60;2.90;;;25.40;32.60;;;;;;4972378;28;20414;-72
2023/07/09 01:36:06;;;;;;;98.87;2.90;;;25.40;33.30;;;;;;4970707;28;20420;-72
2023/07/09 01:38:33;;;;;;;98.60;2.70;;;25.40;33.20;;;;;;4975124;28;20897;-72
2023/07/09 01:40:59;;;;;;;98.20;2.33;;;25.40;32.60;;;;;;4974305;28;20457;-72
2023/07/09 01:43:26;;;;;;;99.77;3.23;;;25.20;32.70;;;;;;4976100;28;20917;-72
2023/07/09 01:45:52;;;;;;;98.80;2.73;;;25.10;33.20;;;;;;4975679;28;20496;-72
2023/07/09 01:48:20;;;;;;;101.40;3.20;;;25.10;33.60;;;;;;4975756;28;21004;-72
2023/07/09 01:50:46;;;;;;;99.07;2.77;;;25.10;34.50;;;;;;4975766;28;20666;-72
2023/07/09 01:53:14;;;;;;;99.40;2.60;;;25.00;33.80;;;;;;4975801;28;20416;-72
2023/07/09 01:55:40;;;;;;;101.47;3.10;;;24.90;33.90;;;;;;4975376;28;20405;-72
2023/07/09 01:58:06;;;;;;;98.80;2.63;;;24.90;34.10;;;;;;4975749;28;20428;-72
2023/07/09 02:00:34;;;;;;;99.20;2.80;;;24.90;34.30;;;;;;4975424;28;20201;-73
2023/07/09 02:03:01;;;;;;;99.87;3.10;;;24.90;34.80;;;;;;4975688;28;20459;-72
2023/07/09 02:05:30;;;;;;;98.90;2.40;;;25.00;33.40;;;;;;4975396;28;20501;-72
2023/07/09 02:07:55;;;;;;;98.47;2.30;;;25.10;33.40;;;;;;4975594;28;20417;-72
2023/07/09 02:10:21;;;;;;;100.27;3.50;;;25.00;33.30;;;;;;4975359;28;20452;-72
2023/07/09 02:12:47;;;;;;;99.17;2.77;;;25.10;32.90;;;;;;4975445;28;20339;-72
2023/07/09 02:15:13;;;;;;;99.30;2.90;;;25.00;33.60;;;;;;4974917;28;20174;-72
2023/07/09 02:17:39;;;;;;;99.40;2.70;;;25.00;33.10;;;;;;4975465;28;20441;-72
2023/07/09 02:20:06;;;;;;;103.37;3.10;;;25.00;33.80;;;;;;4975131;28;20853;-72
2023/07/09 02:22:33;;;;;;;99.17;2.50;;;24.90;33.80;;;;;;4975516;28;20409;-72
2023/07/09 02:24:58;;;;;;;99.10;2.80;;;24.80;33.60;;;;;;4974894;28;20429;-72
2023/07/09 02:27:24;;;;;;;99.57;2.70;;;24.80;34.20;;;;;;4975260;28;20437;-72
2023/07/09 02:29:49;;;;;;;100.47;2.97;;;25.00;33.20;;;;;;4974928;28;20228;-72
2023/07/09 02:32:21;;;;;;;99.23;2.70;;;24.90;33.20;;;;;;4975110;28;20178;-72
2023/07/09 02:34:52;;;;;;;99.73;2.93;;;25.10;32.20;;;;;;4974798;28;20186;-72
2023/07/09 02:37:20;;;;;;;99.20;2.67;;;25.10;33.70;;;;;;4974993;28;20488;-72
2023/07/09 02:39:46;;;;;;;99.47;2.60;;;24.90;33.70;;;;;;4974863;28;20527;-72
2023/07/09 02:42:14;;;;;;;100.80;2.90;;;24.70;35.30;;;;;;4974725;28;20440;-72
2023/07/09 02:44:41;;;;;;;99.60;2.83;;;24.70;34.10;;;;;;4974639;28;20417;-72
2023/07/09 02:47:07;;;;;;;102.83;3.43;;;24.70;34.50;;;;;;4974849;28;20905;-72
2023/07/09 02:49:32;;;;;;;100.30;3.00;;;24.50;34.10;;;;;;4974050;28;20432;-72
2023/07/09 02:51:58;;;;;;;99.80;2.70;;;24.40;34.90;;;;;;4974316;28;20973;-72
2023/07/09 02:54:23;;;;;;;99.87;2.73;;;24.40;34.80;;;;;;4974824;28;20209;-72
2023/07/09 02:56:49;;;;;;;100.13;2.90;;;24.40;35.40;;;;;;4974406;28;20525;-73
2023/07/09 02:59:15;;;;;;;100.00;2.83;;;24.30;35.60;;;;;;4974573;28;20252;-72
2023/07/09 03:01:40;;;;;;;100.77;3.10;;;24.30;35.20;;;;;;4974521;28;20207;-72
2023/07/09 03:04:06;;;;;;;100.27;2.80;;;24.10;35.30;;;;;;4973092;28;20227;-72
2023/07/09 03:06:33;;;;;;;99.87;2.80;;;24.00;35.70;;;;;;4974189;28;20206;-72
2023/07/09 03:09:00;;;;;;;100.10;2.97;;;24.00;35.60;;;;;;4974572;28;20437;-72
2023/07/09 03:11:27;;;;;;;99.83;2.67;;;24.00;35.10;;;;;;4974462;28;20415;-72
2023/07/09 03:13:53;;;;;;;102.30;3.50;;;24.00;34.90;;;;;;4974382;28;20452;-72
2023/07/09 03:16:19;;;;;;;100.00;2.67;;;24.00;35.20;;;;;;4973971;28;20440;-72
2023/07/09 03:18:45;;;;;;;99.97;2.83;;;24.10;34.60;;;;;;4974022;28;20205;-72
2023/07/09 03:21:11;;;;;;;99.97;2.70;;;24.40;33.70;;;;;;4973950;28;20430;-72
2023/07/09 03:23:36;;;;;;;100.23;2.80;;;24.50;33.70;;;;;;4974572;28;20177;-72
2023/07/09 03:26:03;;;;;;;100.57;2.90;;;24.30;34.80;;;;;;4973599;28;20173;-72
2023/07/09 03:28:30;;;;;;;100.57;2.90;;;24.20;35.80;;;;;;4974157;28;20176;-72
2023/07/09 03:30:56;;;;;;;101.10;2.90;;;24.10;35.30;;;;;;4974095;28;20448;-72
2023/07/09 03:33:23;;;;;;;100.20;2.80;;;24.10;35.60;;;;;;4974027;28;20954;-72
2023/07/09 03:35:49;;;;;;;99.73;2.50;;;24.10;34.80;;;;;;4973560;28;20188;-73
2023/07/09 03:38:15;;;;;;;99.97;2.73;;;24.10;35.90;;;;;;4973965;28;20418;-72
2023/07/09 03:40:40;;;;;;;100.80;3.40;;;24.10;35.20;;;;;;4973763;28;20455;-72
2023/07/09 03:43:07;;;;;;;100.37;2.97;;;24.00;35.40;;;;;;4972483;28;20204;-72
2023/07/09 03:45:35;;;;;;;100.40;2.93;;;24.00;35.30;;;;;;4973694;28;20348;-72
2023/07/09 03:48:01;;;;;;;100.30;2.43;;;23.90;35.80;;;;;;4973289;28;20403;-72
2023/07/09 03:50:27;;;;;;;99.97;2.57;;;24.00;35.70;;;;;;4973655;28;20958;-72
2023/07/09 03:52:53;;;;;;;100.80;2.83;;;23.90;35.90;;;;;;4972306;28;20427;-72
2023/07/09 03:55:19;;;;;;;100.30;2.83;;;23.80;36.00;;;;;;4973486;28;20590;-73
2023/07/09 03:57:44;;;;;;;100.70;3.13;;;23.80;36.80;;;;;;4973804;28;20508;-72
2023/07/09 04:00:10;;;;;;;101.17;3.13;;;23.90;36.90;;;;;;4973382;28;20637;-72
2023/07/09 04:02:37;;;;;;;99.97;2.50;;;23.80;36.80;;;;;;4973283;28;20179;-72
2023/07/09 04:05:03;;;;;;;100.10;2.80;;;23.90;37.30;;;;;;4973278;28;20414;-72
2023/07/09 04:07:29;;;;;;;99.97;2.50;;;24.00;36.10;;;;;;4973494;28;20497;-73
2023/07/09 04:09:54;;;;;;;100.07;2.80;;;23.90;35.90;;;;;;4973273;28;20446;-72
2023/07/09 04:12:20;;;;;;;103.80;3.77;;;23.90;36.00;;;;;;4973136;28;20180;-72
2023/07/09 04:14:46;;;;;;;100.37;2.60;;;23.90;36.10;;;;;;4972981;28;20207;-72
2023/07/09 04:17:11;;;;;;;100.47;3.00;;;24.00;36.20;;;;;;4973076;28;20182;-72
2023/07/09 04:19:37;;;;;;;100.37;2.73;;;24.10;36.10;;;;;;4972748;28;20218;-73
2023/07/09 04:22:03;;;;;;;100.20;2.60;;;24.10;35.80;;;;;;4973041;28;20176;-72
2023/07/09 04:24:29;;;;;;;106.67;2.87;;;23.80;35.40;;;;;;4972991;28;20189;-72
2023/07/09 04:26:56;;;;;;;101.77;3.37;;;23.80;36.10;;;;;;4972860;28;20249;-73
2023/07/09 04:29:22;;;;;;;101.17;3.00;;;23.90;36.30;;;;;;4973081;28;20954;-72
2023/07/09 04:31:48;;;;;;;101.00;3.37;;;23.70;35.60;;;;;;4972626;28;20798;-72
2023/07/09 04:34:14;;;;;;;101.37;3.60;;;23.50;36.50;;;;;;4973176;28;20419;-72
2023/07/09 04:36:40;;;;;;;100.67;2.80;;;23.80;36.90;;;;;;4972795;28;20542;-73
2023/07/09 04:39:06;;;;;;;101.00;3.00;;;24.00;36.30;;;;;;4971418;28;20526;-73
2023/07/09 04:41:33;;;;;;;99.80;2.37;;;24.20;36.80;;;;;;4972951;28;20312;-73
2023/07/09 04:43:58;;;;;;;100.70;3.00;;;24.40;35.60;;;;;;4972722;28;20603;-72
2023/07/09 04:46:24;;;;;;;100.53;2.97;;;24.50;35.50;;;;;;4972254;28;20416;-73
2023/07/09 04:48:50;;;;;;;100.50;2.90;;;24.40;34.90;;;;;;4972500;28;20196;-72
2023/07/09 04:51:15;;;;;;;100.57;3.07;;;24.50;35.30;;;;;;4972874;28;20170;-72
2023/07/09 04:53:42;;;;;;;101.47;3.17;;;24.60;35.20;;;;;;4972545;28;20200;-73
2023/07/09 04:56:09;;;;;;;100.00;2.60;;;24.60;35.80;;;;;;4972435;28;20175;-72
2023/07/09 04:58:35;;;;;;;100.67;3.33;;;24.60;36.80;;;;;;4972586;28;20772;-73
2023/07/09 05:01:00;;;;;;;100.37;2.70;;;24.70;35.60;;;;;;4972393;28;20452;-72
2023/07/09 05:03:26;;;;;;;100.03;2.53;;;24.70;36.50;;;;;;4972655;28;20756;-72
2023/07/09 05:05:52;;;;;;;100.67;2.57;;;24.50;35.00;;;;;;4972129;28;20174;-73
2023/07/09 05:08:18;;;;;;;100.03;2.40;;;24.30;34.00;;;;;;4972604;28;20200;-73
2023/07/09 05:10:46;;;;;;;100.57;2.80;;;23.40;36.30;;;;;;4972529;28;20184;-72
2023/07/09 05:13:12;;;;;;;100.73;2.93;;;23.30;36.90;;;;;;4974945;28;20420;-72
2023/07/09 05:15:44;;;;;;;100.20;2.80;;;23.20;37.40;;;;;;4976155;28;20424;-72
2023/07/09 05:18:14;;;;;;;100.17;2.77;;;23.00;37.60;;;;;;4976373;28;20777;-72
2023/07/09 05:20:40;;;;;;;99.93;2.77;;;22.40;39.50;;;;;;4976201;28;20559;-72
2023/07/09 05:23:06;;;;;;;99.77;2.60;;;22.60;38.50;;;;;;4976337;28;20441;-73
2023/07/09 05:25:32;;;;;;;99.70;2.60;;;22.90;38.60;;;;;;4976190;28;20944;-72
2023/07/09 05:27:57;;;;;;;99.90;2.70;;;23.50;36.90;;;;;;4976160;28;20216;-72
2023/07/09 05:30:23;;;;;;;99.87;2.57;;;24.10;36.70;;;;;;4975895;28;20591;-73
2023/07/09 05:32:49;;;;;;;99.67;2.40;;;24.60;35.40;;;;;;4976137;28;20180;-72
2023/07/09 05:35:14;;;;;;;99.70;2.83;;;24.40;33.80;;;;;;4976039;28;20464;-72
2023/07/09 05:37:40;;;;;;;110.50;2.87;;;24.10;35.00;;;;;;4976177;28;20268;-72
2023/07/09 05:40:08;;;;;;;100.03;2.53;;;23.70;35.70;;;;;;4975662;28;20218;-72
2023/07/09 05:42:34;;;;;;;99.77;2.87;;;23.30;36.60;;;;;;4976112;28;20260;-72
2023/07/09 05:44:59;;;;;;;100.10;2.57;;;23.30;36.50;;;;;;4975608;28;20436;-72
2023/07/09 05:47:26;;;;;;;99.60;2.77;;;23.60;36.30;;;;;;4976102;28;20905;-72
2023/07/09 05:49:52;;;;;;;99.60;2.77;;;23.80;35.60;;;;;;4975581;28;20276;-73
2023/07/09 05:52:19;;;;;;;99.87;2.90;;;24.00;35.10;;;;;;4975969;28;20457;-72
2023/07/09 05:54:45;;;;;;;100.00;2.80;;;24.10;35.10;;;;;;4975450;28;20476;-73
2023/07/09 05:57:11;;;;;;;99.00;2.70;;;24.40;34.30;;;;;;4975788;28;20421;-72
2023/07/09 05:59:36;;;;;;;99.50;2.67;;;24.70;33.10;;;;;;4975293;28;20209;-73
2023/07/09 06:02:03;;;;;;;99.83;3.03;;;24.70;33.60;;;;;;4975749;28;20175;-73
2023/07/09 06:04:30;;;;;;;99.50;2.63;;;24.60;33.80;;;;;;4975498;28;20578;-72
2023/07/09 06:06:56;;;;;;;99.57;2.77;;;25.20;32.20;;;;;;4975315;28;20788;-72
2023/07/09 06:09:22;;;;;;;99.90;3.03;;;25.60;31.70;;;;;;4975401;28;20441;-72
2023/07/09 06:11:48;;;;;;;99.37;2.80;;;25.60;30.80;;;;;;4975431;28;20452;-71
2023/07/09 06:14:13;;;;;;;99.30;2.60;;;24.70;33.00;;;;;;4975347;28;20237;-72
2023/07/09 06:16:39;;;;;;;99.00;2.67;;;24.70;33.60;;;;;;4975161;28;20210;-72
2023/07/09 06:19:04;;;;;;;98.97;2.70;;;24.70;33.80;;;;;;4975054;28;20225;-72
2023/07/09 06:21:30;;;;;;;98.47;2.70;;;24.30;34.30;;;;;;4975472;28;20170;-72
2023/07/09 06:23:55;;;;;;;99.40;2.80;;;24.40;34.90;;;;;;4974029;28;20221;-73
2023/07/09 06:26:21;;;;;;;99.00;2.80;;;25.10;33.40;;;;;;4974913;28;20257;-72
2023/07/09 06:28:46;;;;;;;99.07;2.80;;;25.80;32.70;;;;;;4974963;28;20206;-72
2023/07/09 06:31:12;;;;;;;100.37;2.90;;;25.60;31.90;;;;;;4975267;28;20261;-73
2023/07/09 06:33:38;;;;;;;99.60;3.00;;;25.80;31.90;;;;;;4975089;28;20179;-72
2023/07/09 06:36:04;;;;;;;99.17;3.00;;;25.40;32.00;;;;;;4974821;28;20635;-72
2023/07/09 06:38:30;;;;;;;98.97;2.93;;;25.20;33.70;;;;;;4975113;28;20175;-73
2023/07/09 06:40:56;;;;;;;98.37;2.50;;;25.80;32.60;;;;;;4974811;28;20495;-72
2023/07/09 06:43:22;;;;;;;99.30;2.47;;;25.60;31.90;;;;;;4974980;28;20167;-73
2023/07/09 06:45:50;;;;;;;98.43;2.47;;;26.20;31.40;;;;;;4974638;28;20409;-72
2023/07/09 06:48:16;;;;;;;98.30;2.50;;;25.60;32.00;;;;;;4974824;28;20245;-73
2023/07/09 06:50:42;;;;;;;99.00;2.80;;;26.00;31.80;;;;;;4975270;28;20837;-72
2023/07/09 06:53:07;;;;;;;99.00;2.73;;;26.10;31.00;;;;;;4974811;28;20677;-72
2023/07/09 06:55:33;;;;;;;98.53;2.57;;;25.90;31.20;;;;;;4974252;28;20175;-73
2023/07/09 06:57:59;;;;;;;99.70;3.00;;;26.00;30.90;;;;;;4975105;28;20232;-73
2023/07/09 07:00:24;;;;;;;98.47;2.70;;;26.50;30.40;;;;;;4974687;28;20445;-72
2023/07/09 07:02:50;;;;;;;98.50;2.70;;;26.40;30.30;;;;;;4974706;28;20185;-73
2023/07/09 07:05:17;;;;;;;98.70;3.00;;;26.40;30.30;;;;;;4974297;28;20547;-73
2023/07/09 07:07:43;;;;;;;98.07;2.57;;;26.70;30.10;;;;;;4974599;28;20484;-73
2023/07/09 07:10:09;;;;;;;100.80;2.53;;;27.10;30.50;;;;;;4974072;28;20536;-73
2023/07/09 07:12:44;;;;;;;98.00;2.40;;;27.40;29.30;;;;;;4974484;28;20174;-73
2023/07/09 07:15:10;;;;;;;97.87;2.60;;;27.60;28.20;;;;;;4974070;28;20158;-73
2023/07/09 07:17:36;;;;;;;98.37;2.97;;;27.80;28.70;;;;;;4972968;28;20414;-73
2023/07/09 07:20:02;;;;;;;98.53;3.07;;;27.50;28.20;;;;;;4973932;28;20512;-73
2023/07/09 07:22:28;;;;;;;97.80;2.60;;;27.30;29.00;;;;;;4974339;28;20178;-73
2023/07/09 07:24:53;;;;;;;97.97;2.73;;;27.30;29.30;;;;;;4973742;28;20261;-73
2023/07/09 07:27:19;;;;;;;97.80;2.70;;;27.60;28.90;;;;;;4974304;28;20174;-73
2023/07/09 07:29:45;;;;;;;97.77;2.87;;;27.60;29.10;;;;;;4973949;28;20205;-73
2023/07/09 07:32:11;;;;;;;99.70;3.30;;;27.50;28.70;;;;;;4974208;28;20173;-73
2023/07/09 07:34:36;;;;;;;97.90;2.60;;;27.50;28.10;;;;;;4973713;28;20421;-73
2023/07/09 07:37:02;;;;;;;97.40;2.63;;;28.00;27.80;;;;;;4973764;28;20220;-73
2023/07/09 07:39:28;;;;;;;100.27;3.00;;;28.20;27.90;;;;;;4973692;28;20229;-73
2023/07/09 07:41:55;;;;;;;97.40;2.57;;;28.40;27.60;;;;;;4973543;28;20646;-73
2023/07/09 07:44:22;;;;;;;97.60;2.87;;;28.60;27.30;;;;;;4974039;28;20174;-73
2023/07/09 07:46:47;;;;;;;97.30;2.73;;;28.80;26.40;;;;;;4973480;28;20458;-73
2023/07/09 07:49:13;;;;;;;97.63;2.60;;;28.80;26.10;;;;;;4973801;28;20555;-72
2023/07/09 07:51:38;;;;;;;97.60;2.63;;;28.90;27.00;;;;;;4973476;28;20175;-72
2023/07/09 07:54:04;;;;;;;98.10;2.63;;;28.70;26.30;;;;;;4973625;28;20634;-73
2023/07/09 07:56:30;;;;;;;99.03;2.87;;;28.50;26.10;;;;;;4973488;28;20560;-73
2023/07/09 07:58:56;;;;;;;97.27;2.70;;;28.40;26.60;;;;;;4973412;28;20190;-74
2023/07/09 08:01:21;;;;;;;97.40;2.60;;;28.40;27.00;;;;;;4973355;28;20659;-73
2023/07/09 08:03:47;;;;;;;97.87;2.87;;;28.50;25.60;;;;;;4973542;28;20185;-73
2023/07/09 08:06:12;;;;;;;97.17;2.60;;;28.80;26.00;;;;;;4973127;28;20174;-73
2023/07/09 08:08:38;;;;;;;97.80;2.70;;;29.30;25.10;;;;;;4973312;28;20186;-73
2023/07/09 08:11:07;;;;;;;96.47;2.30;;;29.50;25.00;;;;;;4973227;28;20592;-74
2023/07/09 08:13:37;;;;;;;96.60;2.13;;;29.60;24.40;;;;;;4973196;28;20189;-73
2023/07/09 08:16:03;;;;;;;96.70;2.40;;;29.40;24.20;;;;;;4972965;28;20917;-73
2023/07/09 08:18:29;;;;;;;97.07;2.50;;;29.10;24.20;;;;;;4973128;28;20915;-73
2023/07/09 08:20:55;;;;;;;96.87;2.60;;;29.60;22.90;;;;;;4972952;28;20544;-73
2023/07/09 08:23:20;;;;;;;96.70;2.63;;;29.20;23.90;;;;;;4972933;28;20274;-74
2023/07/09 08:25:53;;;;;;;96.40;2.30;;;29.30;23.30;;;;;;4972807;28;20271;-73
2023/07/09 08:28:19;;;;;;;95.77;2.20;;;29.60;22.80;;;;;;4973228;28;20179;-74
2023/07/09 08:30:45;;;;;;;96.60;2.73;;;30.30;23.20;;;;;;4972897;28;20438;-73
2023/07/09 08:33:10;;;;;;;97.23;2.77;;;29.90;22.50;;;;;;4972844;28;20271;-73
2023/07/09 08:35:36;;;;;;;95.73;2.50;;;29.80;23.60;;;;;;4972608;28;20421;-73
2023/07/09 08:38:01;;;;;;;95.30;2.10;;;29.90;23.20;;;;;;4972915;28;20202;-73
2023/07/09 08:40:27;;;;;;;98.03;3.10;;;30.00;23.00;;;;;;4972756;28;20246;-73
2023/07/09 08:42:59;;;;;;;95.93;2.53;;;30.20;22.70;;;;;;4972557;28;20204;-73
2023/07/09 08:45:47;;;;;;;95.80;2.50;;;30.50;22.90;;;;;;4972745;28;20702;-74
2023/07/09 08:48:22;;;;;;;95.03;2.20;;;30.80;23.40;;;;;;4972562;28;20819;-74
2023/07/09 08:50:54;;;;;;;97.20;2.60;;;31.00;21.70;;;;;;4972796;28;20440;-73
2023/07/09 08:53:35;;;;;;;94.90;2.10;;;30.40;22.30;;;;;;4972855;28;20416;-74
2023/07/09 08:56:02;;;;;;;95.37;2.00;;;30.30;22.10;;;;;;4972129;28;20498;-73
2023/07/09 08:58:32;;;;;;;94.67;2.20;;;30.50;22.80;;;;;;4972625;28;20430;-74
2023/07/09 09:01:05;;;;;;;98.47;3.00;;;30.60;22.00;;;;;;4972497;28;20472;-74
2023/07/09 09:03:37;;;;;;;96.00;2.80;;;30.50;21.20;;;;;;4971474;28;20449;-73
2023/07/09 09:06:10;;;;;;;94.00;2.07;;;30.60;21.80;;;;;;4972279;28;20460;-73
2023/07/09 09:08:53;;;;;;;94.73;2.37;;;30.80;21.00;;;;;;4972630;28;20912;-74
2023/07/09 09:11:48;;;;;;;94.17;2.20;;;30.90;20.50;;;;;;4972383;28;20937;-73
2023/07/09 09:14:28;;;;;;;94.03;2.10;;;31.20;19.50;;;;;;4972608;28;20472;-73
2023/07/09 09:16:55;;;;;;;94.10;2.57;;;31.50;19.40;;;;;;4972392;28;20496;-73
2023/07/09 09:19:28;;;;;;;93.80;2.10;;;31.40;19.30;;;;;;4972193;28;20473;-74
2023/07/09 09:22:01;;;;;;;93.90;2.20;;;31.50;19.40;;;;;;4971097;28;20425;-73
2023/07/09 09:24:34;;;;;;;93.77;2.10;;;31.00;19.80;;;;;;4972074;28;20464;-74
2023/07/09 09:27:00;;;;;;;93.50;2.00;;;31.70;20.20;;;;;;4972289;28;20445;-74
2023/07/09 09:29:26;;;;;;;96.70;2.20;;;31.70;19.20;;;;;;4972484;28;20462;-74
2023/07/09 09:31:57;;;;;;;93.97;2.40;;;31.50;19.40;;;;;;4971010;28;20183;-74
2023/07/09 09:34:29;;;;;;;93.20;2.17;;;32.20;19.80;;;;;;4972265;28;20432;-73
2023/07/09 09:36:57;;;;;;;93.57;2.20;;;31.70;18.40;;;;;;4972128;28;20909;-73
2023/07/09 09:39:25;;;;;;;92.97;1.90;;;31.60;18.50;;;;;;4972289;28;20469;-73
2023/07/09 09:41:53;;;;;;;92.70;1.80;;;31.70;18.40;;;;;;4971004;28;20422;-74
2023/07/09 09:44:26;;;;;;;93.40;2.30;;;32.30;19.80;;;;;;4972232;28;20902;-73
2023/07/09 09:46:52;;;;;;;92.97;2.10;;;32.70;17.40;;;;;;4972243;28;20937;-74
2023/07/09 09:49:18;;;;;;;93.10;2.10;;;32.00;18.10;;;;;;4972312;28;20521;-74
2023/07/09 09:51:46;;;;;;;95.47;2.50;;;32.30;18.50;;;;;;4972158;28;20505;-73
2023/07/09 09:54:27;;;;;;;93.63;2.20;;;32.30;18.00;;;;;;4972249;28;20753;-73
2023/07/09 09:56:53;;;;;;;92.93;2.10;;;32.30;18.00;;;;;;4971889;28;20398;-73
2023/07/09 09:59:32;;;;;;;92.77;2.23;;;32.30;18.30;;;;;;4974207;28;20488;-74
2023/07/09 10:02:13;;;;;;;93.77;2.37;;;32.30;17.70;;;;;;4975577;28;20459;-73
2023/07/09 10:04:39;;;;;;;93.07;2.27;;;32.40;17.60;;;;;;4975440;28;20640;-73
2023/07/09 10:07:07;;;;;;;92.97;2.37;;;33.10;19.20;;;;;;4975541;28;20910;-74
2023/07/09 10:09:52;;;;;;;92.70;2.13;;;33.80;17.20;;;;;;4975457;28;20297;-74
2023/07/09 10:12:44;;;;;;;93.30;2.20;;;34.20;16.60;;;;;;4975286;28;20826;-74
2023/07/09 10:15:26;;;;;;;92.87;2.10;;;34.60;16.20;;;;;;4975330;28;20841;-74
2023/07/09 10:18:09;;;;;;;93.07;2.20;;;34.70;15.70;;;;;;4975382;28;20897;-74
2023/07/09 10:20:44;;;;;;;94.87;2.47;;;35.00;16.00;;;;;;4975285;28;20527;-73
2023/07/09 10:23:23;;;;;;;93.37;2.30;;;34.90;14.70;;;;;;4975042;28;20402;-74
2023/07/09 10:25:57;;;;;;;93.67;2.17;;;35.10;14.30;;;;;;4975059;28;20497;-74
2023/07/09 10:28:44;;;;;;;93.03;2.20;;;35.10;14.80;;;;;;4975195;28;20878;-74
2023/07/09 10:31:31;;;;;;;94.17;2.27;;;35.30;14.90;;;;;;4975233;28;20526;-74
2023/07/09 10:34:18;;;;;;;93.10;2.03;;;35.30;14.10;;;;;;4974851;28;20445;-74
2023/07/09 10:37:07;;;;;;;92.67;2.17;;;35.20;14.30;;;;;;4975028;28;20746;-74
2023/07/09 10:39:46;;;;;;;93.57;2.47;;;35.00;13.80;;;;;;4975162;28;20935;-74
2023/07/09 10:42:35;;;;;;;97.07;2.30;;;33.70;14.80;;;;;;4975028;28;20390;-74
2023/07/09 10:45:10;;;;;;;92.47;1.97;;;33.50;15.70;;;;;;4974677;28;20410;-74
2023/07/09 10:47:42;;;;;;;92.57;2.10;;;34.10;14.40;;;;;;4973498;28;20406;-73
2023/07/09 10:50:17;;;;;;;92.60;1.93;;;34.20;15.40;;;;;;4973596;28;20446;-73
2023/07/09 10:52:45;;;;;;;93.57;2.27;;;34.80;16.00;;;;;;4974694;28;20469;-73
2023/07/09 10:55:16;;;;;;;92.30;1.90;;;35.50;14.40;;;;;;4974503;28;20500;-73
2023/07/09 10:57:53;;;;;;;92.27;1.97;;;35.10;13.60;;;;;;4974719;28;20476;-73
2023/07/09 11:00:21;;;;;;;92.70;2.10;;;35.40;14.20;;;;;;4974522;28;20469;-73
2023/07/09 11:02:56;;;;;;;92.30;1.93;;;35.90;12.80;;;;;;4974573;28;20902;-74
2023/07/09 11:05:22;;;;;;;92.80;2.00;;;36.30;12.20;;;;;;4974374;28;20428;-73
2023/07/09 11:08:12;;;;;;;93.30;2.17;;;36.30;12.30;;;;;;4974257;28;20414;-73
2023/07/09 11:10:49;;;;;;;92.00;1.80;;;36.30;11.00;;;;;;4973859;28;20210;-73
2023/07/09 11:13:21;;;;;;;92.00;2.00;;;36.40;12.00;;;;;;4974370;28;20433;-73
2023/07/09 11:15:49;;;;;;;91.77;1.93;;;36.90;10.70;;;;;;4974148;28;20414;-72
2023/07/09 11:18:30;;;;;;;93.03;2.00;;;36.60;11.00;;;;;;4973970;28;20918;-72
2023/07/09 11:21:19;;;;;;;91.87;1.93;;;36.60;9.30;;;;;;4974276;28;20449;-73
2023/07/09 11:24:00;;;;;;;92.20;2.00;;;36.80;8.70;;;;;;4972754;28;20429;-73
2023/07/09 11:26:28;;;;;;;92.23;1.87;;;37.30;8.40;;;;;;4974057;28;20398;-73
2023/07/09 11:29:15;;;;;;;92.93;2.10;;;37.40;9.00;;;;;;4973990;28;20440;-73
2023/07/09 11:31:45;;;;;;;91.00;1.80;;;37.60;9.20;;;;;;4973837;28;20430;-73
2023/07/09 11:34:13;;;;;;;91.17;2.10;;;37.90;7.10;;;;;;4974045;28;20763;-73
2023/07/09 11:36:58;;;;;;;91.40;1.90;;;38.30;7.60;;;;;;4973787;28;20467;-73
2023/07/09 11:39:36;;;;;;;91.17;1.97;;;38.30;8.70;;;;;;4973712;28;20465;-74
2023/07/09 11:42:02;;;;;;;90.17;1.67;;;39.60;6.10;;;;;;4973945;28;20480;-73
2023/07/09 11:44:30;;;;;;;89.97;1.93;;;40.10;5.60;;;;;;4973710;28;20815;-73
2023/07/09 11:47:20;;;;;;;89.90;1.80;;;39.90;6.40;;;;;;4973732;28;20634;-73
2023/07/09 11:50:01;;;;;;;90.27;1.87;;;41.20;6.80;;;;;;4973361;28;20430;-73
2023/07/09 11:52:47;;;;;;;88.60;1.70;;;42.10;4.00;;;;;;4973920;28;20537;-73
2023/07/09 11:55:19;;;;;;;88.00;1.60;;;41.10;3.90;;;;;;4973388;28;20466;-74
2023/07/09 11:57:48;;;;;;;88.27;1.80;;;41.20;4.40;;;;;;4973480;28;20589;-74
2023/07/09 12:00:15;;;;;;;87.17;1.70;;;42.30;3.60;;;;;;4973155;28;20906;-74
2023/07/09 12:02:41;;;;;;;87.27;1.80;;;42.40;3.00;;;;;;4973599;28;20504;-73
2023/07/09 12:05:07;;;;;;;86.67;1.70;;;42.80;4.60;;;;;;4973089;28;20499;-73
2023/07/09 12:07:34;;;;;;;86.47;1.60;;;42.90;4.30;;;;;;4973702;28;20174;-74
2023/07/09 12:10:09;;;;;;;86.17;1.70;;;43.10;2.90;;;;;;4973030;28;20436;-74
2023/07/09 12:12:34;;;;;;;85.47;1.50;;;42.40;3.40;;;;;;4973361;28;20508;-73
2023/07/09 12:15:05;;;;;;;85.47;1.60;;;42.80;3.70;;;;;;4972975;28;20501;-74
2023/07/09 12:17:33;;;;;;;85.00;1.50;;;42.60;3.90;;;;;;4973428;28;20201;-74
2023/07/09 12:19:59;;;;;;;85.60;1.80;;;43.00;2.50;;;;;;4972723;28;20473;-74
2023/07/09 12:22:25;;;;;;;86.10;1.80;;;43.70;3.00;;;;;;4972452;28;20412;-73
2023/07/09 12:24:51;;;;;;;85.57;1.70;;;43.90;1.40;;;;;;4972423;28;20178;-73
2023/07/09 12:27:24;;;;;;;85.10;1.77;;;44.20;1.90;;;;;;4973070;28;20176;-74
2023/07/09 12:29:54;;;;;;;83.87;1.40;;;43.70;2.60;;;;;;4972862;28;20433;-74
2023/07/09 12:32:22;;;;;;;84.87;1.80;;;44.20;1.50;;;;;;4973142;28;20197;-74
2023/07/09 12:34:52;;;;;;;84.93;1.80;;;43.60;1.20;;;;;;4972479;28;20423;-74
2023/07/09 12:37:20;;;;;;;84.03;1.67;;;43.70;2.50;;;;;;4972904;28;20417;-74
2023/07/09 12:39:47;;;;;;;84.17;1.70;;;44.20;1.80;;;;;;4972792;28;20461;-74
2023/07/09 12:42:25;;;;;;;84.67;1.50;;;43.50;1.00;;;;;;4972872;28;20409;-74
2023/07/09 12:44:51;;;;;;;84.17;1.70;;;41.70;3.10;;;;;;4972366;28;20433;-74